Matapedia, Canada
Current Conditions -  °F | °C
As of 6:00 PM on Thursday 23 Oct 2014 (Local Time) from CZBF Reporting Station
Overcast Overcast  
Wind Chill: 39°   Ceiling: 1600
Heat Index: 43°   Visibility: 15mi
Dew Point: 39°   Wind: 7mph
Humidity: 87%   Direction: 60°ENE
Pressure: 30.15"   Gusts: NA
Location:  47.98°N, 66.96°W
Report Text: CZBF 232100Z 06006KT 030V100 15SM OVC016 06/04 A3015 RMK SC8 SLP212
Loading
Personal Weather Stations






























Interactive Weather Map
Tropical Storm Tracking
New forecast layout! Learn more

10-Day Weather Forecast

Advertisements
Track Severe Weather on mobile